Time;durP1;ratioP1;P1;durP2;ratioP2;P2;SDS_P1;SDS_P2;PMS_P1;PMS_P2;Temp;Humidity;BMP_temperature;BMP_pressure;BME280_temperature;BME280_humidity;BME280_pressure;Samples;Min_cycle;Max_cycle;Signal;HPM_P1;HPM_P2
2022/08/11 00:00:11;;;;;;;3.97;1.77;;;19.20;53.50;;;18.43;56.72;96429.66;4942963;28;20525;-66
2022/08/11 00:02:49;;;;;;;3.90;2.10;;;19.10;53.40;;;18.38;58.00;96441.00;4961574;28;20047;-66
2022/08/11 00:05:20;;;;;;;2.83;2.00;;;19.10;53.50;;;18.35;57.07;96430.81;4944653;28;20031;-66
2022/08/11 00:07:56;;;;;;;4.30;2.20;;;19.10;53.70;;;18.34;58.07;96430.00;4930089;28;20150;-66
2022/08/11 00:10:26;;;;;;;7.13;2.10;;;19.00;53.60;;;18.32;57.64;96433.91;4944095;28;20105;-66
2022/08/11 00:12:58;;;;;;;3.53;1.90;;;19.10;53.60;;;18.29;56.72;96427.19;4942331;28;20058;-66
2022/08/11 00:15:25;;;;;;;3.22;2.40;;;19.00;53.70;;;18.29;56.62;96437.84;4944575;28;20050;-66
2022/08/11 00:17:57;;;;;;;2.95;1.90;;;19.10;53.80;;;18.27;57.02;96434.59;4945358;28;20035;-66
2022/08/11 00:20:31;;;;;;;2.25;1.70;;;19.00;53.60;;;18.25;57.06;96438.53;4943737;28;20102;-66
2022/08/11 00:23:11;;;;;;;5.90;2.25;;;19.00;53.70;;;18.24;57.75;96443.03;4944307;28;20125;-66
2022/08/11 00:25:42;;;;;;;4.75;1.83;;;19.00;53.80;;;18.21;56.74;96443.50;4943917;28;20043;-65
2022/08/11 00:28:31;;;;;;;2.13;1.70;;;19.00;53.80;;;18.20;57.63;96444.53;4962364;28;20031;-66
2022/08/11 00:31:05;;;;;;;3.35;2.10;;;18.90;53.90;;;18.15;57.65;96436.44;4944977;28;20577;-65
2022/08/11 00:33:40;;;;;;;2.88;2.00;;;18.90;53.80;;;18.12;57.27;96436.91;4912707;28;20463;-65
2022/08/11 00:36:07;;;;;;;4.07;1.77;;;18.80;53.80;;;18.11;57.58;96434.47;4945448;28;20039;-66
2022/08/11 00:38:39;;;;;;;3.90;2.20;;;18.90;53.70;;;18.10;57.10;96438.94;4949634;28;20063;-66
2022/08/11 00:41:59;;;;;;;4.05;1.70;;;18.90;53.60;;;18.09;57.63;96432.00;4913970;28;20049;-65
2022/08/11 00:45:03;;;;;;;2.95;1.83;;;18.90;53.70;;;18.07;58.47;96431.41;4945635;28;20046;-66
2022/08/11 00:47:34;;;;;;;3.40;1.92;;;18.90;53.80;;;18.05;56.87;96436.16;4946071;28;20510;-66
2022/08/11 00:50:36;;;;;;;3.40;2.22;;;18.80;53.70;;;18.06;57.86;96433.28;4960436;28;20043;-67
2022/08/11 00:53:30;;;;;;;4.25;1.98;;;18.80;53.90;;;18.06;57.65;96440.44;4949352;28;20191;-66
2022/08/11 00:56:36;;;;;;;5.43;2.05;;;18.90;53.80;;;18.04;57.84;96429.22;4963517;28;20095;-66
2022/08/11 00:59:33;;;;;;;3.47;2.10;;;18.80;53.90;;;18.03;58.67;96428.41;4959114;28;20499;-66
2022/08/11 01:02:11;;;;;;;2.60;1.90;;;18.80;53.90;;;18.01;58.60;96429.69;4961606;28;20040;-65
2022/08/11 01:05:21;;;;;;;5.18;2.00;;;18.80;53.80;;;17.99;58.77;96423.78;4964861;28;20134;-66
2022/08/11 01:08:17;;;;;;;4.70;2.20;;;18.80;53.90;;;17.99;58.47;96423.78;4947469;28;20035;-65
2022/08/11 01:11:25;;;;;;;6.70;2.17;;;18.80;54.10;;;17.99;59.04;96418.44;4950012;28;20496;-67
2022/08/11 01:14:00;;;;;;;3.25;1.85;;;18.80;54.10;;;17.95;57.50;96419.94;4959785;28;20126;-67
2022/08/11 01:17:03;;;;;;;4.57;2.22;;;18.70;54.10;;;17.96;58.62;96410.91;4962526;28;20145;-66
2022/08/11 01:19:55;;;;;;;4.40;2.28;;;18.80;54.20;;;17.95;58.74;96414.63;4963755;28;20031;-66
2022/08/11 01:23:15;;;;;;;3.03;2.10;;;18.80;54.20;;;17.90;59.05;96417.16;4964071;28;20101;-66
2022/08/11 01:26:01;;;;;;;4.47;2.20;;;18.70;54.40;;;17.89;58.06;96421.69;4932824;28;20126;-65
2022/08/11 01:28:40;;;;;;;5.22;1.88;;;18.70;54.50;;;17.88;59.59;96421.88;4948478;28;20578;-66
2022/08/11 01:31:43;;;;;;;3.33;2.20;;;18.70;54.60;;;17.87;59.00;96422.91;4947366;28;20133;-66
2022/08/11 01:34:22;;;;;;;6.50;2.30;;;18.70;54.70;;;17.84;59.65;96418.84;4949333;28;20651;-66
2022/08/11 01:37:25;;;;;;;4.60;2.50;;;18.70;54.80;;;17.83;59.56;96421.75;4944691;28;20031;-66
2022/08/11 01:40:36;;;;;;;3.90;2.30;;;18.60;54.80;;;17.80;59.77;96416.88;4921282;28;20035;-65
2022/08/11 01:47:05;;;;;;;5.53;2.45;;;18.60;55.00;;;17.70;59.46;96418.25;4952018;28;20091;-65
2022/08/11 01:49:34;;;;;;;7.22;2.65;;;18.60;55.20;;;17.68;59.31;96424.84;4966327;28;20097;-66
2022/08/11 01:52:13;;;;;;;3.92;2.67;;;18.50;55.20;;;17.67;60.03;96424.03;4931655;28;20039;-65
2022/08/11 01:55:06;;;;;;;4.45;2.30;;;18.50;55.40;;;17.62;60.13;96429.16;4932839;28;20042;-69
2022/08/11 01:57:44;;;;;;;3.70;2.38;;;18.50;55.50;;;17.61;60.28;96418.75;4948670;28;20142;-66
2022/08/11 02:00:27;;;;;;;3.63;2.08;;;18.50;55.50;;;17.60;60.07;96412.59;4946017;28;20032;-66
2022/08/11 02:03:23;;;;;;;3.67;2.22;;;18.50;55.60;;;17.57;60.42;96423.69;4916449;28;20039;-65
2022/08/11 02:09:54;;;;;;;4.50;2.47;;;18.40;55.90;;;17.51;61.02;96410.50;4957457;28;20086;-66
2022/08/11 02:12:50;;;;;;;3.28;2.10;;;18.40;56.00;;;17.48;60.65;96406.44;4907556;29;20036;-65
2022/08/11 02:15:41;;;;;;;5.30;2.55;;;18.30;56.10;;;17.46;61.32;96411.19;4891941;29;20134;-65
2022/08/11 02:18:20;;;;;;;3.63;2.83;;;18.30;56.30;;;17.43;60.50;96406.31;4942305;28;20046;-66
2022/08/11 02:23:51;;;;;;;6.40;3.50;;;18.30;56.30;;;17.38;61.10;96406.16;4947558;28;20130;-67
2022/08/11 02:26:43;;;;;;;5.05;2.75;;;18.20;56.50;;;17.35;61.25;96398.63;4946846;28;20112;-66
2022/08/11 02:29:20;;;;;;;6.20;2.83;;;18.20;56.50;;;17.32;61.62;96401.72;4949305;28;20027;-66
2022/08/11 02:35:19;;;;;;;9.60;5.82;;;18.20;56.80;;;17.24;62.39;96397.53;4945661;28;20130;-66
2022/08/11 02:37:56;;;;;;;5.82;3.25;;;18.20;57.00;;;17.23;61.99;96395.91;4934496;28;20175;-66
2022/08/11 02:40:49;;;;;;;5.13;4.10;;;18.10;57.00;;;17.23;62.69;96395.91;4961322;28;20039;-65
2022/08/11 02:43:37;;;;;;;4.95;3.83;;;18.10;57.20;;;17.22;62.64;96386.31;4939354;28;20074;-65
2022/08/11 02:46:25;;;;;;;7.22;4.50;;;18.10;57.30;;;17.20;62.69;96387.56;4961243;28;20533;-66
2022/08/11 02:52:17;;;;;;;6.07;3.00;;;18.10;57.40;;;17.10;62.37;96386.25;4932905;28;20102;-66
2022/08/11 02:55:11;;;;;;;4.30;2.53;;;18.00;57.60;;;17.09;62.94;96386.47;4943176;28;20064;-67
2022/08/11 02:57:42;;;;;;;4.72;2.95;;;18.00;57.60;;;17.06;62.61;96385.06;4958691;28;20067;-66
2022/08/11 03:00:13;;;;;;;4.68;2.95;;;18.00;57.70;;;17.05;62.55;96399.41;4945086;28;20061;-66
2022/08/11 03:02:49;;;;;;;;;;;18.00;57.90;;;17.02;63.24;96405.16;4963057;28;20110;-66
2022/08/11 03:05:25;;;;;;;6.13;4.22;;;17.90;57.80;;;16.96;63.10;96394.59;4960580;28;19969;-66
2022/08/11 03:08:14;;;;;;;10.27;3.40;;;17.80;58.20;;;16.95;63.84;96398.28;4947838;28;20031;-66
2022/08/11 03:18:03;;;;;;;5.18;3.20;;;17.80;58.50;;;16.85;64.92;96396.16;4949835;28;20101;-66
2022/08/11 03:21:04;;;;;;;5.88;3.33;;;17.80;58.70;;;16.84;64.39;96397.19;4949368;28;20058;-66
2022/08/11 03:23:36;;;;;;;;;;;17.80;58.60;;;16.80;64.52;96390.69;4934350;28;20078;-66
2022/08/11 03:26:37;;;;;;;5.22;3.13;;;17.70;58.80;;;16.76;64.84;96392.16;4945387;28;19929;-66
2022/08/11 03:29:24;;;;;;;5.60;2.70;;;17.70;58.90;;;16.76;64.76;96394.81;4957368;28;20122;-66
2022/08/11 03:32:20;;;;;;;5.35;3.05;;;17.70;58.90;;;16.75;64.91;96393.19;4928112;28;20478;-66
2022/08/11 03:34:46;;;;;;;5.78;2.83;;;17.70;58.90;;;16.71;63.73;96395.47;4932532;28;20039;-66
2022/08/11 03:37:52;;;;;;;4.90;2.83;;;17.70;59.10;;;16.73;65.14;96389.91;4939603;28;20141;-66
2022/08/11 03:41:41;;;;;;;3.28;2.70;;;17.70;59.10;;;16.70;64.25;96395.69;4936807;28;20090;-66
2022/08/11 03:43:18;;;;;;;4.20;3.08;;;17.70;59.10;;;16.66;65.52;96390.00;4946862;28;20038;-66
2022/08/11 03:46:06;;;;;;;5.25;3.08;;;17.60;59.30;;;16.65;65.35;96388.34;4945560;28;20142;-66
2022/08/11 03:49:28;;;;;;;5.25;2.83;;;17.60;59.40;;;16.62;65.44;96399.41;4947059;28;20423;-66
2022/08/11 03:52:31;;;;;;;6.43;3.17;;;17.60;59.50;;;16.60;65.72;96398.00;4943569;28;20470;-65
2022/08/11 03:55:23;;;;;;;6.47;3.03;;;17.50;59.50;;;16.57;65.66;96401.09;4944609;28;20093;-66
2022/08/11 03:58:20;;;;;;;4.97;2.58;;;17.50;59.70;;;16.56;65.88;96394.19;4938904;28;20050;-66
2022/08/11 04:01:51;;;;;;;7.55;3.35;;;17.50;59.80;;;16.53;66.02;96396.25;4960944;28;20074;-66
2022/08/11 04:04:20;;;;;;;3.95;2.92;;;17.50;60.00;;;16.49;64.86;96399.53;4943926;28;20043;-66
2022/08/11 04:07:07;;;;;;;4.95;2.80;;;17.40;60.00;;;16.48;65.78;96396.06;4945278;28;20099;-66
2022/08/11 04:10:00;;;;;;;7.60;3.30;;;17.40;60.10;;;16.46;66.02;96394.66;4960233;28;20711;-66
2022/08/11 04:13:29;;;;;;;4.78;2.90;;;17.40;60.00;;;16.43;66.74;96395.91;4946539;28;20126;-66
2022/08/11 04:16:24;;;;;;;4.43;2.88;;;17.40;60.20;;;16.41;67.02;96391.84;4903438;29;20106;-70
2022/08/11 04:19:33;;;;;;;5.05;3.22;;;17.30;60.40;;;16.39;67.13;96393.91;4900748;29;20040;-68
2022/08/11 04:22:53;;;;;;;4.47;2.80;;;17.40;60.30;;;16.37;67.04;96394.13;4932705;28;20031;-69
2022/08/11 04:25:24;;;;;;;3.95;2.90;;;17.40;60.40;;;16.35;66.80;96403.34;4948186;28;20134;-66
2022/08/11 04:28:27;;;;;;;7.07;3.20;;;17.30;60.50;;;16.35;67.52;96393.53;4964395;28;20074;-67
2022/08/11 04:31:07;;;;;;;5.32;3.03;;;17.30;60.60;;;16.32;67.30;96396.63;4945368;28;20035;-66
2022/08/11 04:33:58;;;;;;;5.38;2.95;;;17.30;60.70;;;16.31;67.48;96399.50;4948431;28;20027;-64
2022/08/11 04:39:52;;;;;;;6.32;2.80;;;17.30;60.80;;;16.27;66.03;96401.75;4944827;28;20002;-64
2022/08/11 04:46:07;;;;;;;5.25;3.00;;;17.30;60.50;;;16.31;67.64;96402.16;4949301;28;20099;-64
2022/08/11 05:01:40;;;;;;;3.53;2.80;;;17.50;60.70;;;16.43;68.25;96401.22;4948606;28;20085;-65
2022/08/11 05:08:01;;;;;;;4.40;3.30;;;17.60;60.50;;;16.51;67.34;96408.91;4946733;28;20580;-64
2022/08/11 05:11:11;;;;;;;4.15;2.65;;;17.60;60.20;;;16.54;67.86;96413.78;4961664;28;20050;-65
2022/08/11 05:37:04;;;;;;;5.10;3.00;;;18.50;58.20;;;17.26;66.32;96415.94;4942535;28;20082;-70
2022/08/11 05:56:44;;;;;;;4.25;2.80;;;19.60;54.80;;;18.16;62.94;96411.44;4937242;28;20086;-67
2022/08/11 05:59:14;;;;;;;5.97;2.83;;;19.70;54.40;;;18.26;62.42;96409.00;4931754;28;20115;-70
2022/08/11 06:01:40;;;;;;;5.95;2.60;;;19.90;54.10;;;18.39;62.32;96415.97;4919470;29;20525;-69
2022/08/11 06:04:15;;;;;;;8.77;3.08;;;20.00;53.80;;;18.54;62.99;96410.19;4945433;28;20039;-70
2022/08/11 06:07:01;;;;;;;4.70;2.63;;;20.20;53.10;;;18.72;61.46;96403.97;4947977;28;20054;-69
2022/08/11 06:09:45;;;;;;;5.43;3.08;;;20.40;52.70;;;18.86;61.82;96408.03;4933952;28;20043;-60
2022/08/11 06:12:23;;;;;;;5.43;3.53;;;20.60;52.70;;;19.03;60.90;96421.47;4950651;28;20381;-67
2022/08/11 06:14:56;;;;;;;3.80;3.30;;;20.80;52.40;;;19.17;59.75;96415.63;4934712;28;20066;-69
2022/08/11 06:17:27;;;;;;;6.20;3.90;;;20.90;51.60;;;19.33;59.56;96410.59;4949684;28;20042;-69
2022/08/11 06:20:04;;;;;;;9.63;4.50;;;21.10;51.20;;;19.50;59.59;96412.28;4965227;28;20114;-62
2022/08/11 06:22:29;;;;;;;7.30;3.20;;;21.30;50.60;;;19.64;59.27;96412.03;4963910;28;20047;-70
2022/08/11 06:24:57;;;;;;;4.78;2.53;;;21.40;50.60;;;19.79;58.89;96409.66;4951180;28;20055;-72
2022/08/11 06:27:25;;;;;;;5.65;2.88;;;21.60;50.20;;;19.96;59.10;96413.16;4949616;28;20062;-69
2022/08/11 06:29:52;;;;;;;6.40;2.75;;;21.60;50.10;;;20.10;57.96;96419.00;4950701;28;20035;-69
2022/08/11 06:32:19;;;;;;;3.40;2.80;;;21.70;49.90;;;20.21;57.70;96407.44;4922365;28;20027;-71
2022/08/11 06:35:12;;;;;;;5.18;2.80;;;21.80;49.70;;;20.32;56.08;96411.91;4966235;28;20039;-71
2022/08/11 06:38:14;;;;;;;5.53;3.00;;;21.80;48.80;;;20.41;55.37;96417.69;4953421;28;20114;-72
2022/08/11 06:43:56;;;;;;;3.70;2.33;;;22.10;48.60;;;20.56;54.83;96420.59;4933299;29;20566;-68
2022/08/11 06:46:37;;;;;;;4.70;2.47;;;22.00;48.40;;;20.61;54.63;96423.34;4965209;28;20043;-69
2022/08/11 06:51:10;;;;;;;5.57;2.90;;;22.20;48.10;;;20.69;55.26;96412.25;4958009;28;20039;-69
2022/08/11 06:52:08;;;;;;;7.28;2.58;;;22.30;48.10;;;20.77;55.59;96422.50;4943909;28;20122;-68
2022/08/11 06:54:40;;;;;;;5.68;2.72;;;22.40;48.40;;;20.84;54.84;96417.00;4921116;29;20031;-68
2022/08/11 07:03:00;;;;;;;4.28;2.40;;;22.60;47.40;;;21.07;53.60;96416.81;4947960;28;20038;-69
2022/08/11 07:05:42;;;;;;;3.72;2.80;;;22.70;46.90;;;21.14;53.80;96419.28;4965139;28;20047;-69
2022/08/11 07:28:53;;;;;;;4.22;2.38;;;23.20;45.70;;;21.62;52.88;96407.84;4949060;28;20034;-67
2022/08/11 07:29:00;;;;;;;3.33;2.20;;;23.90;44.40;;;22.16;52.13;96401.72;4962937;28;20039;-69
2022/08/11 07:31:43;;;;;;;4.68;2.28;;;24.10;43.80;;;22.34;52.11;96398.66;4932638;28;20039;-69
2022/08/11 07:34:34;;;;;;;8.13;3.22;;;24.40;44.40;;;22.56;50.92;96399.34;4947101;28;20031;-68
2022/08/11 07:37:04;;;;;;;6.95;2.13;;;24.60;44.10;;;22.77;50.34;96402.19;4938845;28;20115;-69
2022/08/11 07:39:31;;;;;;;4.15;2.22;;;24.80;42.60;;;22.92;50.06;96405.00;4933439;29;20058;-71
2022/08/11 07:41:58;;;;;;;5.68;2.53;;;25.00;42.10;;;23.09;49.28;96392.22;4949256;28;20043;-69
2022/08/11 07:44:28;;;;;;;5.80;2.70;;;25.30;40.80;;;23.22;48.25;96394.41;4916941;29;20074;-70
2022/08/11 07:52:31;;;;;;;4.32;2.28;;;25.80;40.20;;;23.74;47.69;96398.09;4947960;28;20042;-69
2022/08/11 07:55:26;;;;;;;3.38;2.15;;;26.00;39.30;;;23.93;45.02;96384.97;4945903;28;20043;-69
2022/08/11 08:20:06;;;;;;;4.35;2.00;;;28.10;36.50;;;25.69;43.32;96373.41;4933646;29;20090;-70
2022/08/11 08:22:31;;;;;;;4.63;2.17;;;28.20;35.40;;;25.82;42.98;96375.50;4916537;28;20062;-69
2022/08/11 08:24:57;;;;;;;5.10;2.25;;;28.40;35.10;;;25.97;43.03;96375.38;4910497;28;20680;-69
2022/08/11 08:27:24;;;;;;;3.78;2.17;;;28.60;35.40;;;26.13;42.09;96378.78;4916414;28;20043;-71
2022/08/11 08:32:37;;;;;;;9.05;2.38;;;29.00;34.20;;;26.48;40.99;96377.72;4944978;28;20791;-70
2022/08/11 08:35:03;;;;;;;6.35;2.90;;;29.20;33.80;;;26.64;41.18;96381.91;4948796;28;20042;-69
2022/08/11 08:37:29;;;;;;;4.10;2.30;;;29.50;33.70;;;26.77;40.88;96375.84;4948020;28;20031;-69
2022/08/11 08:39:55;;;;;;;3.55;1.92;;;29.70;33.10;;;26.98;40.03;96376.44;4936556;28;20031;-71
2022/08/11 08:42:28;;;;;;;8.23;1.70;;;30.00;33.10;;;27.21;40.01;96374.88;4962450;28;20039;-70
2022/08/11 08:45:17;;;;;;;4.97;1.90;;;30.40;33.30;;;27.42;37.94;96376.22;4926997;28;20116;-69
2022/08/11 08:48:04;;;;;;;2.65;2.00;;;30.50;32.00;;;27.58;39.09;96373.31;4932886;28;20031;-70
2022/08/11 08:53:22;;;;;;;6.20;1.80;;;30.70;31.80;;;27.94;38.25;96382.56;4946929;28;20046;-70
2022/08/11 08:55:49;;;;;;;4.43;1.98;;;31.10;31.20;;;28.13;38.36;96384.47;4931618;28;20040;-69
2022/08/11 08:58:15;;;;;;;5.05;1.80;;;31.20;31.10;;;28.32;37.84;96377.16;4946098;28;20483;-69
2022/08/11 09:00:43;;;;;;;3.03;1.60;;;31.40;31.00;;;28.52;36.94;96382.25;4946879;28;20091;-69
2022/08/11 09:03:09;;;;;;;4.55;1.90;;;31.60;29.90;;;28.65;37.46;96376.06;4931380;28;20123;-72
2022/08/11 09:05:35;;;;;;;4.75;1.65;;;31.80;30.20;;;28.83;37.22;96379.00;4946653;28;20031;-71
2022/08/11 09:08:01;;;;;;;2.33;1.70;;;32.00;29.90;;;29.04;37.00;96376.75;4947658;28;20034;-71
2022/08/11 09:10:29;;;;;;;3.60;1.75;;;32.40;29.60;;;29.28;35.91;96378.16;4918508;28;20471;-68
2022/08/11 09:12:56;;;;;;;3.45;1.95;;;32.50;28.50;;;29.40;35.58;96369.50;4951299;28;20059;-71
2022/08/11 09:15:22;;;;;;;3.58;1.92;;;32.70;28.60;;;29.61;35.63;96366.41;4950129;28;20127;-71
2022/08/11 09:17:50;;;;;;;2.60;1.60;;;33.00;28.20;;;29.77;35.33;96373.09;4934743;28;20110;-72
2022/08/11 09:20:25;;;;;;;3.55;1.65;;;33.00;28.30;;;29.93;33.14;96370.84;4949752;28;20062;-72
2022/08/11 09:28:28;;;;;;;4.25;1.75;;;33.50;27.20;;;30.53;34.02;96379.47;4966857;28;20046;-70
2022/08/11 09:30:54;;;;;;;4.32;1.48;;;33.70;27.10;;;30.70;33.00;96386.94;4921732;28;20586;-71
2022/08/11 09:33:20;;;;;;;5.90;1.70;;;33.70;27.00;;;30.79;33.20;96382.38;4967110;28;20133;-70
2022/08/11 09:35:48;;;;;;;5.13;1.25;;;33.80;26.60;;;30.92;32.71;96376.03;4951243;28;20036;-67
2022/08/11 09:41:06;;;;;;;2.80;1.50;;;34.30;26.20;;;31.29;31.57;96382.94;4933627;28;20070;-70
2022/08/11 09:46:16;;;;;;;6.30;1.70;;;34.60;25.10;;;31.48;31.84;96382.69;4962832;28;20042;-70
2022/08/11 09:48:44;;;;;;;2.97;1.63;;;34.50;25.40;;;31.59;31.21;96384.00;4934242;29;20031;-72
2022/08/11 09:51:10;;;;;;;4.05;1.27;;;34.70;25.60;;;31.74;31.79;96371.09;4931053;28;20047;-72
2022/08/11 09:53:38;;;;;;;3.80;1.50;;;35.00;25.40;;;31.91;30.79;96373.81;4917756;29;20050;-68
2022/08/11 09:58:51;;;;;;;2.58;1.70;;;35.50;24.40;;;32.20;30.46;96365.84;4949618;28;20546;-71
2022/08/11 10:01:25;;;;;;;4.82;1.48;;;36.00;24.30;;;32.38;29.34;96371.31;4948288;28;20043;-68
2022/08/11 10:03:59;;;;;;;2.40;1.67;;;36.60;23.50;;;32.65;29.28;96370.13;4949829;28;20046;-65
2022/08/11 10:09:20;;;;;;;2.45;1.58;;;37.40;23.40;;;33.16;30.24;96352.81;4948846;28;20161;-67
2022/08/11 10:11:46;;;;;;;3.38;1.40;;;37.80;22.60;;;33.45;29.78;96352.06;4950141;28;20461;-68
2022/08/11 10:16:57;;;;;;;2.03;1.42;;;38.50;21.60;;;34.07;28.94;96343.94;4964488;28;20046;-67
2022/08/11 10:19:23;;;;;;;2.80;1.42;;;39.00;21.20;;;34.42;28.59;96345.59;4934340;28;20051;-66
2022/08/11 10:27:21;;;;;;;2.38;1.42;;;40.00;19.90;;;35.22;27.59;96346.00;4959449;28;20542;-67
2022/08/11 10:35:16;;;;;;;2.28;1.63;;;41.70;18.80;;;36.30;26.77;96332.47;4960116;28;20042;-68
2022/08/11 10:37:43;;;;;;;5.38;1.75;;;42.20;18.10;;;36.73;26.54;96337.19;4931639;28;20039;-66
2022/08/11 10:40:14;;;;;;;4.82;1.55;;;42.60;18.20;;;37.16;25.27;96332.03;4949548;28;20036;-66
2022/08/11 10:48:09;;;;;;;3.33;1.40;;;43.60;16.70;;;37.75;24.35;96326.38;4951291;28;20045;-67
2022/08/11 10:58:49;;;;;;;2.78;1.20;;;44.50;16.40;;;38.99;23.22;96319.00;4936585;28;20101;-67
2022/08/11 11:01:22;;;;;;;1.73;1.30;;;44.80;16.10;;;39.24;22.71;96311.97;4953247;28;20134;-67
2022/08/11 11:03:53;;;;;;;3.47;1.30;;;44.80;15.70;;;39.02;22.02;96313.56;4917514;29;20032;-73
2022/08/11 11:06:43;;;;;;;2.78;1.48;;;44.00;15.90;;;38.97;21.49;96321.31;4949131;28;20043;-73
2022/08/11 11:09:42;;;;;;;5.25;1.67;;;44.30;16.10;;;39.18;21.55;96310.69;4948795;28;20035;-68
2022/08/11 11:18:25;;;;;;;3.28;1.50;;;45.00;16.40;;;39.84;21.09;96297.50;4960726;28;20065;-64
2022/08/11 11:21:03;;;;;;;2.08;1.20;;;44.80;15.40;;;39.92;20.66;96308.25;4934070;28;20043;-63
2022/08/11 11:23:39;;;;;;;4.00;1.40;;;44.80;16.00;;;39.85;20.49;96310.91;4963016;28;20043;-62
2022/08/11 11:26:45;;;;;;;2.55;1.60;;;44.40;15.90;;;40.17;20.44;96305.00;4967778;28;20046;-64
2022/08/11 11:29:53;;;;;;;4.20;1.50;;;44.80;16.00;;;40.32;19.71;96287.47;4948321;28;20035;-65
2022/08/11 11:32:34;;;;;;;2.67;1.25;;;44.90;15.50;;;40.50;19.87;96288.47;4947468;28;20055;-65
2022/08/11 11:35:15;;;;;;;1.95;1.40;;;45.20;15.70;;;40.60;20.09;96290.56;4948548;28;20154;-64
2022/08/11 11:37:44;;;;;;;2.50;1.30;;;45.50;15.60;;;40.77;20.46;96288.34;4951507;28;20027;-70
2022/08/11 11:40:12;;;;;;;3.65;1.50;;;45.60;15.10;;;40.91;19.91;96288.47;4919447;29;20111;-69
2022/08/11 11:42:39;;;;;;;2.80;1.40;;;45.80;14.80;;;40.93;20.20;96291.66;4932316;28;20031;-69
2022/08/11 11:45:07;;;;;;;4.60;1.40;;;46.00;15.30;;;41.16;19.96;96294.19;4960395;28;20039;-69
2022/08/11 11:47:32;;;;;;;2.25;1.52;;;46.20;14.80;;;41.23;20.13;96295.09;4948102;28;20035;-69
2022/08/11 11:49:58;;;;;;;3.28;1.20;;;46.20;14.90;;;41.57;19.76;96292.94;4948790;28;20031;-71
2022/08/11 11:52:24;;;;;;;3.42;1.30;;;46.60;14.90;;;41.73;19.84;96295.41;4950333;28;20034;-68
2022/08/11 11:54:53;;;;;;;2.53;1.20;;;47.00;14.80;;;42.06;19.14;96290.81;4917525;28;20035;-69
2022/08/11 12:02:56;;;;;;;2.15;1.30;;;46.60;14.70;;;42.14;19.47;96287.72;4961070;28;20090;-69
2022/08/11 12:05:22;;;;;;;;;;;46.30;15.10;;;42.08;18.73;96282.94;4963667;28;20054;-63
2022/08/11 12:10:32;;;;;;;2.50;1.20;;;46.90;14.80;;;42.38;19.30;96279.91;4937265;28;20182;-68
2022/08/11 12:15:46;;;;;;;4.20;1.30;;;47.20;14.60;;;42.87;18.76;96284.72;4947061;28;20122;-70
2022/08/11 12:18:12;;;;;;;3.20;1.30;;;47.00;14.60;;;42.86;18.75;96283.16;4946331;28;20039;-70
2022/08/11 12:20:38;;;;;;;5.13;1.10;;;47.00;14.60;;;42.95;18.84;96272.50;4950468;28;20043;-71
2022/08/11 12:28:32;;;;;;;1.50;1.10;;;46.80;14.10;;;43.07;17.97;96260.25;4963669;28;20520;-69
2022/08/11 12:30:58;;;;;;;1.50;1.20;;;46.70;14.40;;;42.90;17.91;96267.34;4917767;28;20035;-71
2022/08/11 12:33:24;;;;;;;2.50;1.35;;;45.90;14.60;;;42.74;18.20;96255.84;4946690;28;20874;-62
2022/08/11 12:35:55;;;;;;;1.85;1.13;;;46.10;15.20;;;42.79;17.83;96255.47;4930700;28;20108;-68
2022/08/11 12:38:20;;;;;;;4.03;1.00;;;46.00;14.70;;;42.76;17.65;96259.00;4947675;28;20062;-69
2022/08/11 12:46:36;;;;;;;2.28;1.08;;;46.30;14.80;;;43.16;17.64;96251.50;4945647;28;20050;-68
2022/08/11 12:52:10;;;;;;;2.97;1.02;;;46.70;14.50;;;43.71;17.41;96249.09;4961657;28;20117;-72
2022/08/11 12:54:59;;;;;;;1.20;1.10;;;47.00;15.00;;;43.88;16.94;96247.41;4947213;28;20126;-67
2022/08/11 13:06:02;;;;;;;6.07;1.52;;;47.50;14.00;;;44.57;16.43;96222.47;4960196;28;20517;-69
2022/08/11 13:08:29;;;;;;;2.65;1.48;;;47.70;13.90;;;44.43;17.15;96232.88;4949822;28;20501;-68
2022/08/11 13:13:42;;;;;;;2.53;1.30;;;47.60;13.90;;;44.38;17.15;96225.78;4955433;28;20112;-69
2022/08/11 13:16:09;;;;;;;5.03;1.45;;;47.30;14.30;;;44.19;16.99;96213.22;4947845;28;20073;-69
2022/08/11 13:18:34;;;;;;;3.35;1.02;;;47.20;13.80;;;44.17;16.86;96225.94;4949444;28;20047;-70
2022/08/11 13:21:00;;;;;;;1.52;1.02;;;46.90;14.00;;;43.73;16.96;96229.28;4931281;28;20055;-70
2022/08/11 13:23:26;;;;;;;2.97;1.35;;;45.60;14.80;;;43.51;16.88;96229.31;4948404;28;20046;-70
2022/08/11 13:25:53;;;;;;;4.05;1.40;;;45.90;14.40;;;43.51;16.92;96223.00;4915912;28;20067;-71
2022/08/11 13:28:20;;;;;;;5.20;1.27;;;45.70;15.10;;;43.53;16.71;96215.06;4946907;28;20054;-70
2022/08/11 13:33:30;;;;;;;3.05;1.15;;;45.80;15.10;;;43.47;17.35;96216.69;4947872;28;20188;-62
2022/08/11 13:35:55;;;;;;;2.67;1.15;;;45.30;15.50;;;43.62;17.16;96213.44;4963663;28;20032;-72
2022/08/11 13:38:23;;;;;;;1.38;1.00;;;45.40;15.60;;;43.75;17.17;96210.25;4945811;28;20039;-69
2022/08/11 13:40:49;;;;;;;1.60;1.13;;;45.50;15.30;;;43.63;17.34;96220.56;4960807;28;20118;-61
2022/08/11 13:43:15;;;;;;;1.73;1.05;;;44.90;15.50;;;43.31;16.90;96215.13;4947311;28;20031;-63
2022/08/11 13:45:41;;;;;;;3.60;1.10;;;44.60;15.10;;;43.02;17.09;96213.59;4911525;28;20042;-71
2022/08/11 13:48:08;;;;;;;1.52;1.10;;;44.40;15.20;;;43.08;17.11;96209.22;4944144;28;20042;-71
2022/08/11 13:53:21;;;;;;;3.67;1.30;;;45.30;15.30;;;43.20;17.10;96210.75;4961259;28;20192;-70
2022/08/11 13:55:47;;;;;;;;;;;45.80;14.80;;;43.18;17.33;96208.41;4948061;28;20040;-72
2022/08/11 13:58:12;;;;;;;3.50;1.38;;;46.10;15.10;;;42.89;17.60;96207.66;4965013;28;19969;-68
2022/08/11 14:00:38;;;;;;;1.50;1.20;;;45.30;14.90;;;42.58;17.81;96212.00;4935453;28;20443;-70
2022/08/11 14:03:07;;;;;;;2.10;1.30;;;44.70;15.50;;;42.44;17.94;96200.88;4934834;28;20031;-71
2022/08/11 14:05:50;;;;;;;3.92;1.33;;;44.40;15.80;;;42.31;17.68;96205.19;4933991;28;20055;-71
2022/08/11 14:08:19;;;;;;;2.72;1.40;;;43.90;16.00;;;42.28;17.85;96192.16;4917282;29;20385;-71
2022/08/11 14:13:36;;;;;;;4.78;1.40;;;43.60;16.20;;;42.08;17.42;96191.72;4917733;28;20027;-67
2022/08/11 14:13:38;;;;;;;2.65;1.20;;;43.50;15.70;;;41.83;17.79;96195.19;4937827;29;20507;-67
2022/08/11 14:16:11;;;;;;;3.05;1.20;;;43.30;16.00;;;41.78;17.22;96198.34;4933604;29;20412;-67
2022/08/11 14:18:42;;;;;;;6.22;1.23;;;43.00;16.10;;;41.71;17.90;96192.00;4919665;28;20059;-68
2022/08/11 14:23:54;;;;;;;4.10;1.30;;;42.70;16.70;;;41.64;17.96;96191.94;4950591;28;20054;-69
2022/08/11 14:26:25;;;;;;;2.58;1.20;;;42.80;16.30;;;41.43;17.61;96198.19;4949377;28;20043;-68
2022/08/11 14:29:01;;;;;;;4.50;1.40;;;42.50;15.90;;;41.29;18.12;96194.16;4931752;28;20130;-67
2022/08/11 14:31:29;;;;;;;1.77;1.10;;;42.20;16.50;;;41.04;18.30;96195.16;4964642;28;20217;-68
2022/08/11 14:33:56;;;;;;;2.88;1.38;;;41.90;17.10;;;40.67;18.13;96191.31;4949640;28;20070;-67
2022/08/11 14:36:25;;;;;;;2.40;1.38;;;41.20;17.20;;;40.24;18.44;96194.84;4966560;28;20035;-69
2022/08/11 14:38:52;;;;;;;1.60;1.30;;;40.60;17.60;;;39.70;18.83;96188.75;4919091;28;20104;-67
2022/08/11 14:47:05;;;;;;;2.33;1.13;;;38.50;19.00;;;38.17;19.26;96194.63;4965661;28;20122;-67
2022/08/11 14:49:34;;;;;;;2.63;1.55;;;37.90;19.70;;;37.67;19.88;96195.56;4925147;29;20047;-67
2022/08/11 14:52:06;;;;;;;2.50;1.23;;;37.30;20.50;;;37.29;20.32;96199.09;4954532;28;20040;-67
2022/08/11 14:57:17;;;;;;;2.40;1.10;;;36.70;21.40;;;36.60;20.95;96195.09;4919066;29;20046;-67
2022/08/11 14:59:43;;;;;;;1.75;1.05;;;36.60;22.00;;;36.39;21.18;96196.16;4926764;28;20043;-68
2022/08/11 15:04:54;;;;;;;2.47;1.60;;;36.50;21.50;;;36.26;21.58;96200.09;4950968;28;20038;-68
2022/08/11 15:07:28;;;;;;;2.45;1.40;;;36.50;21.70;;;36.12;21.24;96202.47;4949735;28;20031;-68
2022/08/11 15:10:00;;;;;;;3.03;1.38;;;36.10;21.60;;;35.86;22.02;96187.31;4948729;28;20051;-67
2022/08/11 15:12:25;;;;;;;4.50;1.17;;;35.90;22.00;;;35.56;22.22;96197.00;4964945;28;20039;-67
2022/08/11 15:17:37;;;;;;;5.40;1.10;;;35.40;22.30;;;35.05;22.05;96184.88;4960203;28;20188;-68
2022/08/11 15:25:35;;;;;;;5.97;1.35;;;34.80;22.70;;;34.23;22.89;96184.97;4922447;28;20073;-66